createdAt,value
2022-11-05T00:03:19.627Z,79.04
2022-11-05T00:06:39.928Z,78.95
2022-11-05T00:09:41.746Z,78.03
2022-11-05T00:13:02.372Z,78.21
2022-11-05T00:16:42.344Z,77.28
2022-11-05T00:19:44.199Z,81.89
2022-11-05T00:23:04.737Z,83.71
2022-11-05T00:26:07.515Z,83.72
2022-11-05T00:29:09.345Z,81.95
2022-11-05T00:32:11.125Z,80.17
2022-11-05T00:35:12.937Z,82.00
2022-11-05T00:38:14.795Z,80.39
2022-11-05T00:41:16.645Z,81.66
2022-11-05T00:44:37.153Z,82.86
2022-11-05T00:47:57.896Z,81.34
2022-11-05T00:50:59.689Z,82.14
2022-11-05T00:54:01.538Z,85.25
2022-11-05T00:57:04.770Z,84.23
2022-11-05T01:00:07.065Z,86.01
2022-11-05T01:03:13.651Z,85.04
2022-11-05T01:06:16.270Z,85.22
2022-11-05T01:09:18.123Z,86.01
2022-11-05T01:12:19.932Z,83.88
2022-11-05T01:15:21.808Z,83.76
2022-11-05T01:18:24.155Z,86.89
2022-11-05T01:21:25.929Z,86.27
2022-11-05T01:24:27.751Z,85.17
2022-11-05T01:27:29.595Z,85.80
2022-11-05T01:30:31.594Z,84.70
2022-11-05T01:33:33.389Z,87.07
2022-11-05T01:36:35.191Z,88.34
2022-11-05T01:39:37.141Z,85.52
2022-11-05T01:42:38.921Z,85.83
2022-11-05T01:45:40.717Z,85.42
2022-11-05T01:48:42.538Z,84.64
2022-11-05T01:51:44.556Z,83.00
2022-11-05T01:54:46.388Z,83.99
2022-11-05T01:57:48.511Z,84.38
2022-11-05T02:00:50.314Z,83.97
2022-11-05T02:03:52.906Z,82.52
2022-11-05T02:06:54.742Z,82.67
2022-11-05T02:10:06.784Z,81.25
2022-11-05T02:13:08.834Z,81.98
2022-11-05T02:16:31.322Z,80.50
2022-11-05T02:19:46.291Z,81.71
2022-11-05T02:23:23.642Z,81.84
2022-11-05T02:26:45.654Z,81.47
2022-11-05T02:30:03.206Z,82.41
2022-11-05T02:33:20.792Z,80.52
2022-11-05T02:36:28.853Z,83.31
2022-11-05T02:39:49.543Z,84.44
2022-11-05T02:43:15.208Z,88.75
2022-11-05T02:46:16.959Z,82.55
2022-11-05T02:49:31.028Z,81.18
2022-11-05T02:52:35.135Z,81.79
2022-11-05T02:55:37.540Z,84.22
2022-11-05T02:58:39.308Z,83.63
2022-11-05T03:01:41.439Z,85.52
2022-11-05T03:04:43.357Z,84.70
2022-11-05T03:07:47.842Z,84.33
2022-11-05T03:10:56.437Z,84.23
2022-11-05T03:14:04.132Z,84.45
2022-11-05T03:17:11.293Z,83.77
2022-11-05T03:20:16.204Z,85.32
2022-11-05T03:23:21.125Z,81.66
2022-11-05T03:26:29.849Z,82.87
2022-11-05T03:29:36.277Z,81.72
2022-11-05T03:32:42.479Z,82.86
2022-11-05T03:35:48.334Z,82.53
2022-11-05T03:38:50.394Z,81.64
2022-11-05T03:41:52.416Z,82.58
2022-11-05T03:44:55.749Z,80.54
2022-11-05T03:47:57.925Z,79.52
2022-11-05T03:51:01.122Z,81.92
2022-11-05T03:54:03.144Z,83.37
2022-11-05T03:57:06.619Z,84.29
2022-11-05T04:00:09.169Z,82.69
2022-11-05T04:03:11.190Z,82.71
2022-11-05T04:06:31.949Z,82.27
2022-11-05T04:09:52.514Z,79.61
2022-11-05T04:13:13.053Z,78.92
2022-11-05T04:16:34.083Z,80.62
2022-11-05T04:19:55.287Z,81.03
2022-11-05T04:23:25.023Z,78.19
2022-11-05T04:26:26.841Z,80.17
2022-11-05T04:29:47.498Z,82.68
2022-11-05T04:32:55.920Z,81.42
2022-11-05T04:35:57.701Z,79.27
2022-11-05T04:38:59.518Z,82.19
2022-11-05T04:42:01.292Z,81.10
2022-11-05T04:45:03.102Z,82.60
2022-11-05T04:48:04.956Z,80.88
2022-11-05T04:51:06.729Z,81.91
2022-11-05T04:54:08.577Z,81.32
2022-11-05T04:57:10.341Z,78.93
2022-11-05T05:00:12.221Z,79.93
2022-11-05T05:03:14.325Z,79.95
2022-11-05T05:06:16.432Z,78.23
2022-11-05T05:09:18.287Z,78.13
2022-11-05T05:12:20.057Z,78.79
2022-11-05T05:15:21.866Z,80.38
2022-11-05T05:18:25.346Z,80.50
2022-11-05T05:21:39.218Z,80.24
2022-11-05T05:24:41.108Z,80.43
2022-11-05T05:27:42.891Z,80.34
2022-11-05T05:30:44.688Z,79.03
2022-11-05T05:33:46.462Z,81.15
2022-11-05T05:36:48.304Z,81.54
2022-11-05T05:39:50.150Z,82.39
2022-11-05T05:42:55.629Z,83.79
2022-11-05T05:45:57.547Z,80.70
2022-11-05T05:48:59.404Z,79.98
2022-11-05T05:52:01.241Z,79.16
2022-11-05T05:55:03.261Z,80.48
2022-11-05T05:58:05.054Z,76.74
2022-11-05T06:01:08.625Z,76.89
2022-11-05T06:04:10.402Z,78.49
2022-11-05T06:07:12.434Z,79.74
2022-11-05T06:10:14.236Z,79.91
2022-11-05T06:13:16.121Z,79.56
2022-11-05T06:16:19.472Z,79.10
2022-11-05T06:19:21.267Z,78.77
2022-11-05T06:22:23.055Z,78.61
2022-11-05T06:25:25.167Z,78.53
2022-11-05T06:28:27.145Z,79.21
2022-11-05T06:31:28.973Z,78.78
2022-11-05T06:34:30.739Z,77.29
2022-11-05T06:37:33.917Z,76.94
2022-11-05T06:40:35.712Z,74.50
2022-11-05T06:43:37.643Z,75.83
2022-11-05T06:46:41.318Z,75.06
2022-11-05T06:49:45.429Z,75.17
2022-11-05T06:52:52.534Z,74.32
2022-11-05T06:55:54.334Z,76.07
2022-11-05T06:58:56.152Z,77.65
2022-11-05T07:01:58.271Z,76.77
2022-11-05T07:05:00.153Z,77.06
2022-11-05T07:08:01.935Z,77.97
2022-11-05T07:11:04.092Z,77.52
2022-11-05T07:14:05.979Z,74.97
2022-11-05T07:17:07.809Z,75.59
2022-11-05T07:20:10.737Z,75.75
2022-11-05T07:23:13.562Z,73.42
2022-11-05T07:26:15.539Z,75.52
2022-11-05T07:29:17.340Z,75.37
2022-11-05T07:32:19.111Z,74.55
2022-11-05T07:35:21.007Z,73.29
2022-11-05T07:38:22.817Z,73.79
2022-11-05T07:41:24.655Z,74.03
2022-11-05T07:44:26.636Z,73.40
2022-11-05T07:47:28.498Z,72.16
2022-11-05T07:50:31.298Z,71.93
2022-11-05T07:53:33.121Z,68.96
2022-11-05T07:56:34.913Z,71.26
2022-11-05T07:59:36.921Z,69.82
2022-11-05T08:02:38.966Z,68.33
2022-11-05T08:05:43.298Z,68.77
2022-11-05T08:08:45.077Z,71.05
2022-11-05T08:11:46.942Z,70.74
2022-11-05T08:14:48.747Z,71.37
2022-11-05T08:17:50.559Z,69.21
2022-11-05T08:20:52.368Z,67.77
2022-11-05T08:23:54.200Z,67.81
2022-11-05T08:26:56.248Z,67.90
2022-11-05T08:29:58.034Z,66.42
2022-11-05T08:33:00.886Z,68.80
2022-11-05T08:36:03.565Z,68.31
2022-11-05T08:39:05.357Z,67.32
2022-11-05T08:42:07.135Z,67.28
2022-11-05T08:45:09.170Z,65.24
2022-11-05T08:48:12.096Z,67.47
2022-11-05T08:51:13.871Z,65.63
2022-11-05T08:54:15.755Z,68.04
2022-11-05T08:57:17.568Z,70.50
2022-11-05T09:00:19.380Z,69.95
2022-11-05T09:03:21.264Z,65.65
2022-11-05T09:06:23.272Z,63.71
2022-11-05T09:09:25.248Z,64.35
2022-11-05T09:12:27.069Z,64.69
2022-11-05T09:15:29.156Z,64.20
2022-11-05T09:18:30.980Z,62.39
2022-11-05T09:21:32.787Z,64.33
2022-11-05T09:24:34.558Z,66.75
2022-11-05T09:27:36.336Z,66.61
2022-11-05T09:30:41.790Z,68.34
2022-11-05T09:33:43.644Z,64.93
2022-11-05T09:36:45.442Z,65.47
2022-11-05T09:39:47.222Z,63.84
2022-11-05T09:42:52.383Z,65.31
2022-11-05T09:45:54.826Z,66.71
2022-11-05T09:49:04.300Z,66.67
2022-11-05T09:52:06.353Z,65.75
2022-11-05T09:55:27.850Z,64.01
2022-11-05T09:58:44.299Z,64.55
2022-11-05T10:01:46.747Z,62.66
2022-11-05T10:04:49.631Z,64.75
2022-11-05T10:07:54.643Z,62.93
2022-11-05T10:11:01.471Z,63.48
2022-11-05T10:14:06.467Z,62.39
2022-11-05T10:17:10.299Z,65.11
2022-11-05T10:20:30.864Z,61.49
2022-11-05T10:23:32.754Z,63.53
2022-11-05T10:26:34.567Z,62.70
2022-11-05T10:29:36.588Z,64.46
2022-11-05T10:32:40.681Z,60.89
2022-11-05T10:35:46.703Z,61.48
2022-11-05T10:38:48.691Z,63.31
2022-11-05T10:41:59.678Z,63.56
2022-11-05T10:45:04.686Z,60.97
2022-11-05T10:48:24.941Z,61.50
2022-11-05T10:51:26.817Z,63.09
2022-11-05T10:54:30.698Z,62.69
2022-11-05T10:57:36.628Z,61.12
2022-11-05T11:00:38.668Z,62.11
2022-11-05T11:03:44.685Z,61.99
2022-11-05T11:07:04.632Z,62.55
2022-11-05T11:10:06.544Z,63.24
2022-11-05T11:13:21.665Z,60.59
2022-11-05T11:16:24.748Z,60.96
2022-11-05T11:19:33.797Z,58.25
2022-11-05T11:22:35.641Z,58.73
2022-11-05T11:25:40.747Z,60.49
2022-11-05T11:28:50.969Z,59.65
2022-11-05T11:31:56.403Z,58.24
2022-11-05T11:34:58.470Z,63.09
2022-11-05T11:38:01.082Z,61.58
2022-11-05T11:41:42.014Z,61.46
2022-11-05T11:44:44.852Z,58.66
2022-11-05T11:47:47.370Z,59.63
2022-11-05T11:50:49.331Z,61.24
2022-11-05T11:53:51.194Z,61.10
2022-11-05T11:56:53.032Z,58.81
2022-11-05T12:00:08.433Z,59.34
2022-11-05T12:03:23.291Z,60.32
2022-11-05T12:06:34.320Z,59.54
2022-11-05T12:09:59.358Z,62.34
2022-11-05T12:13:16.886Z,61.73
2022-11-05T12:16:26.910Z,62.41
2022-11-05T12:19:35.018Z,62.16
2022-11-05T12:22:46.084Z,61.75
2022-11-05T12:26:04.088Z,59.66
2022-11-05T12:29:19.356Z,60.14
2022-11-05T12:32:24.520Z,61.40
2022-11-05T12:35:42.838Z,60.34
2022-11-05T12:38:52.170Z,59.37
2022-11-05T12:42:03.112Z,61.56
2022-11-05T12:45:12.564Z,61.00
2022-11-05T12:48:32.803Z,61.92
2022-11-05T12:51:41.335Z,60.26
2022-11-05T12:54:43.183Z,59.94
2022-11-05T12:57:45.779Z,61.16
2022-11-05T13:00:49.031Z,59.10
2022-11-05T13:03:52.527Z,60.73
2022-11-05T13:06:54.979Z,62.52
2022-11-05T13:09:58.847Z,62.63
2022-11-05T13:13:20.874Z,60.84
2022-11-05T13:16:24.888Z,60.85
2022-11-05T13:19:27.827Z,59.65
2022-11-05T13:22:33.555Z,62.85
2022-11-05T13:25:36.160Z,62.46
2022-11-05T13:28:40.933Z,62.66
2022-11-05T13:31:48.901Z,61.69
2022-11-05T13:34:57.259Z,63.99
2022-11-05T13:38:20.732Z,62.88
2022-11-05T13:41:28.293Z,61.96
2022-11-05T13:44:30.051Z,63.34
2022-11-05T13:47:37.903Z,61.44
2022-11-05T13:50:58.427Z,63.56
2022-11-05T13:54:18.212Z,64.16
2022-11-05T13:57:23.102Z,62.35
2022-11-05T14:00:26.975Z,62.03
2022-11-05T14:03:28.809Z,62.70
2022-11-05T14:06:36.984Z,62.45
2022-11-05T14:09:39.045Z,61.70
2022-11-05T14:12:40.836Z,62.46
2022-11-05T14:15:52.310Z,63.90
2022-11-05T14:18:55.845Z,63.24
2022-11-05T14:21:58.025Z,64.63
2022-11-05T14:25:00.517Z,63.00
2022-11-05T14:28:02.378Z,65.40
2022-11-05T14:31:13.304Z,66.42
2022-11-05T14:34:15.145Z,63.41
2022-11-05T14:37:16.857Z,62.82
2022-11-05T14:40:21.449Z,63.62
2022-11-05T14:43:24.384Z,62.32
2022-11-05T14:46:35.019Z,65.39
2022-11-05T14:49:37.817Z,66.14
2022-11-05T14:52:40.120Z,62.92
2022-11-05T14:55:42.379Z,65.12
2022-11-05T14:58:44.729Z,65.56
2022-11-05T15:01:46.605Z,64.06
2022-11-05T15:04:50.615Z,64.69
2022-11-05T15:07:55.976Z,62.04
2022-11-05T15:11:14.683Z,63.11
2022-11-05T15:14:16.451Z,61.56
2022-11-05T15:17:20.364Z,64.16
2022-11-05T15:20:22.716Z,64.47
2022-11-05T15:23:25.690Z,62.60
2022-11-05T15:26:36.607Z,62.54
2022-11-05T15:29:38.441Z,64.51
2022-11-05T15:32:40.282Z,66.23
2022-11-05T15:35:42.509Z,66.02
2022-11-05T15:39:01.999Z,66.13
2022-11-05T15:42:07.434Z,66.45
2022-11-05T15:45:18.206Z,66.78
2022-11-05T15:48:20.063Z,67.67
2022-11-05T15:51:22.821Z,66.98
2022-11-05T15:54:30.068Z,67.79
2022-11-05T15:57:32.602Z,69.47
2022-11-05T16:00:35.007Z,69.59
2022-11-05T16:03:37.503Z,65.65
2022-11-05T16:06:40.082Z,65.84
2022-11-05T16:09:43.696Z,67.77
2022-11-05T16:12:46.051Z,68.14
2022-11-05T16:15:58.084Z,67.33
2022-11-05T16:18:59.976Z,65.98
2022-11-05T16:22:02.324Z,65.29
2022-11-05T16:25:20.981Z,67.19
2022-11-05T16:28:26.903Z,65.80
2022-11-05T16:31:29.830Z,70.94
2022-11-05T16:34:31.695Z,67.24
2022-11-05T16:37:39.742Z,67.99
2022-11-05T16:40:41.633Z,69.22
2022-11-05T16:43:50.778Z,68.16
2022-11-05T16:46:52.596Z,68.11
2022-11-05T16:49:54.402Z,69.39
2022-11-05T16:52:56.396Z,70.23
2022-11-05T16:55:58.186Z,71.53
2022-11-05T16:59:00.152Z,72.27
2022-11-05T17:02:02.088Z,72.79
2022-11-05T17:05:03.954Z,73.22
2022-11-05T17:08:05.757Z,73.94
2022-11-05T17:11:07.592Z,74.96
2022-11-05T17:14:09.772Z,73.65
2022-11-05T17:17:11.586Z,75.30
2022-11-05T17:20:21.986Z,73.61
2022-11-05T17:23:26.625Z,76.58
2022-11-05T17:26:28.451Z,75.22
2022-11-05T17:29:30.250Z,73.53
2022-11-05T17:32:32.090Z,76.49
2022-11-05T17:35:33.918Z,79.43
2022-11-05T17:38:35.735Z,77.92
2022-11-05T17:41:37.566Z,77.74
2022-11-05T17:44:39.375Z,78.58
2022-11-05T17:47:42.197Z,78.35
2022-11-05T17:50:44.804Z,80.77
2022-11-05T17:53:47.385Z,81.57
2022-11-05T17:56:49.194Z,81.09
2022-11-05T17:59:51.025Z,80.98
2022-11-05T18:02:53.321Z,81.33
2022-11-05T18:06:00.577Z,81.91
2022-11-05T18:09:02.389Z,81.62
2022-11-05T18:12:04.349Z,81.73
2022-11-05T18:15:06.467Z,81.37
2022-11-05T18:18:08.414Z,83.13
2022-11-05T18:21:10.256Z,82.28
2022-11-05T18:24:12.224Z,81.53
2022-11-05T18:27:14.046Z,81.50
2022-11-05T18:30:16.060Z,79.61
2022-11-05T18:33:17.871Z,81.67
2022-11-05T18:36:20.452Z,82.80
2022-11-05T18:39:22.307Z,81.25
2022-11-05T18:42:25.305Z,80.41
2022-11-05T18:45:29.873Z,82.85
2022-11-05T18:48:32.207Z,81.91
2022-11-05T18:51:33.987Z,81.70
2022-11-05T18:54:35.821Z,80.40
2022-11-05T18:57:37.706Z,83.31
2022-11-05T19:00:39.872Z,84.09
2022-11-05T19:03:41.724Z,83.95
2022-11-05T19:06:43.555Z,83.43
2022-11-05T19:09:45.429Z,82.29
2022-11-05T19:12:47.322Z,80.02
2022-11-05T19:15:49.121Z,79.64
2022-11-05T19:18:51.197Z,79.68
2022-11-05T19:21:53.006Z,77.87
2022-11-05T19:24:54.847Z,80.40
2022-11-05T19:27:58.571Z,83.10
2022-11-05T19:31:00.368Z,83.38
2022-11-05T19:34:03.216Z,84.70
2022-11-05T19:37:08.099Z,82.00
2022-11-05T19:40:10.380Z,82.37
2022-11-05T19:43:12.167Z,83.32
2022-11-05T19:46:15.817Z,82.58
2022-11-05T19:49:17.630Z,83.05
2022-11-05T19:52:19.429Z,84.77
2022-11-05T19:55:21.316Z,86.35
2022-11-05T19:58:23.212Z,85.99
2022-11-05T20:01:25.917Z,85.37
2022-11-05T20:04:27.803Z,86.40
2022-11-05T20:07:30.099Z,85.24
2022-11-05T20:10:32.283Z,86.53
2022-11-05T20:13:34.282Z,87.09
2022-11-05T20:16:40.217Z,87.48
2022-11-05T20:19:42.105Z,86.08
2022-11-05T20:22:43.912Z,82.46
2022-11-05T20:25:45.713Z,84.50
2022-11-05T20:28:47.538Z,88.38
2022-11-05T20:31:49.503Z,88.07
2022-11-05T20:34:51.309Z,86.32
2022-11-05T20:37:54.401Z,87.84
2022-11-05T20:40:56.382Z,86.16
2022-11-05T20:43:58.163Z,83.50
2022-11-05T20:46:59.997Z,85.21
2022-11-05T20:50:03.960Z,85.37
2022-11-05T20:53:05.774Z,84.14
2022-11-05T20:56:10.532Z,86.82
2022-11-05T20:59:12.371Z,83.91
2022-11-05T21:02:14.321Z,83.79
2022-11-05T21:05:16.326Z,81.22
2022-11-05T21:08:20.092Z,85.94
2022-11-05T21:11:21.943Z,86.02
2022-11-05T21:14:23.761Z,82.47
2022-11-05T21:17:25.626Z,81.37
2022-11-05T21:20:27.455Z,81.27
2022-11-05T21:23:29.319Z,82.93
2022-11-05T21:26:33.566Z,82.79
2022-11-05T21:29:35.371Z,81.48
2022-11-05T21:32:37.176Z,83.02
2022-11-05T21:35:44.140Z,84.00
2022-11-05T21:38:45.960Z,82.84
2022-11-05T21:41:47.795Z,85.00
2022-11-05T21:44:49.766Z,84.90
2022-11-05T21:47:51.595Z,84.74
2022-11-05T21:51:11.894Z,87.78
2022-11-05T21:54:32.499Z,85.55
2022-11-05T21:57:53.089Z,81.40
2022-11-05T22:00:54.948Z,84.95
2022-11-05T22:04:02.670Z,83.94
2022-11-05T22:07:05.264Z,88.67
2022-11-05T22:10:13.176Z,82.28
2022-11-05T22:13:17.580Z,85.73
2022-11-05T22:16:19.392Z,84.73
2022-11-05T22:19:21.584Z,86.01
2022-11-05T22:22:23.415Z,85.85
2022-11-05T22:25:25.306Z,88.12
2022-11-05T22:28:27.134Z,85.38
2022-11-05T22:31:34.746Z,84.33
2022-11-05T22:34:37.944Z,84.42
2022-11-05T22:37:39.781Z,82.42
2022-11-05T22:40:41.605Z,82.24
2022-11-05T22:43:43.677Z,82.30
2022-11-05T22:46:45.483Z,80.14
2022-11-05T22:49:48.943Z,80.10
2022-11-05T22:52:50.728Z,81.55
2022-11-05T22:55:52.555Z,81.89
2022-11-05T22:58:54.456Z,80.82
2022-11-05T23:01:56.407Z,83.16
2022-11-05T23:04:58.270Z,81.82
2022-11-05T23:08:18.649Z,84.02
2022-11-05T23:11:38.599Z,82.21
2022-11-05T23:14:40.464Z,82.90
2022-11-05T23:18:00.783Z,79.99
2022-11-05T23:21:23.137Z,85.65
2022-11-05T23:24:25.125Z,84.59
2022-11-05T23:27:30.714Z,81.65
2022-11-05T23:30:32.559Z,82.45
2022-11-05T23:33:34.688Z,81.70
2022-11-05T23:36:55.274Z,84.25
2022-11-05T23:39:57.120Z,83.46
2022-11-05T23:43:17.522Z,83.78
2022-11-05T23:46:37.726Z,81.21
2022-11-05T23:49:39.537Z,81.62
2022-11-05T23:52:41.347Z,81.10
2022-11-05T23:55:43.172Z,84.41
2022-11-05T23:58:44.979Z,82.29
